Time;durP1;ratioP1;P1;durP2;ratioP2;P2;SDS_P1;SDS_P2;PMS_P1;PMS_P2;Temp;Humidity;BMP_temperature;BMP_pressure;BME280_temperature;BME280_humidity;BME280_pressure;Samples;Min_cycle;Max_cycle;Signal;HPM_P1;HPM_P2
2022/09/01 00:00:02;;;;;;;;;;;;;;;;;;2132102;27;19938;-44
2022/09/01 00:01:07;;;;;;;;;;;;;;;;;;2132101;27;19923;-43
2022/09/01 00:02:08;;;;;;;;;;;;;;;;;;2132090;27;20010;-44
2022/09/01 00:03:09;;;;;;;;;;;;;;;;;;2132124;27;19923;-45
2022/09/01 00:04:11;;;;;;;;;;;;;;;;;;2132082;27;20029;-44
2022/09/01 00:05:12;;;;;;;;;;;;;;;;;;2132196;27;20304;-44
2022/09/01 00:06:13;;;;;;;;;;;;;;;;;;2132073;27;19933;-45
2022/09/01 00:07:14;;;;;;;;;;;;;;;;;;2132045;27;20329;-44
2022/09/01 00:08:15;;;;;;;;;;;;;;;;;;2132064;27;20196;-44
2022/09/01 00:09:18;;;;;;;;;;;;;;;;;;2132071;27;19924;-45
2022/09/01 00:10:19;;;;;;;;;;;;;;;;;;2132056;27;19929;-44
2022/09/01 00:11:20;;;;;;;;;;;;;;;;;;2131884;27;20011;-45
2022/09/01 00:12:24;;;;;;;;;;;;;;;;;;2131944;27;19934;-46
2022/09/01 00:13:25;;;;;;;;;;;;;;;;;;2132265;27;19950;-44
2022/09/01 00:14:26;;;;;;;;;;;;;;;;;;2131662;27;19924;-45
2022/09/01 00:15:31;;;;;;;;;;;;;;;;;;2131914;27;20272;-44
2022/09/01 00:16:32;;;;;;;;;;;;;;;;;;2132028;27;19975;-44
2022/09/01 00:17:33;;;;;;;;;;;;;;;;;;2131975;27;20358;-44
2022/09/01 00:18:34;;;;;;;;;;;;;;;;;;2131869;27;20010;-44
2022/09/01 00:19:36;;;;;;;;;;;;;;;;;;2131859;27;20366;-45
2022/09/01 00:20:37;;;;;;;;;;;;;;;;;;2132107;27;19922;-44
2022/09/01 00:21:37;;;;;;;;;;;;;;;;;;2131898;27;20416;-45
2022/09/01 00:22:38;;;;;;;;;;;;;;;;;;2132173;27;19937;-44
2022/09/01 00:23:39;;;;;;;;;;;;;;;;;;2131954;27;20515;-44
2022/09/01 00:24:40;;;;;;;;;;;;;;;;;;2131995;27;19988;-43
2022/09/01 00:25:41;;;;;;;;;;;;;;;;;;2131923;27;19975;-45
2022/09/01 00:26:42;;;;;;;;;;;;;;;;;;2131825;27;19933;-45
2022/09/01 00:27:43;;;;;;;;;;;;;;;;;;2131950;27;19968;-47
2022/09/01 00:28:44;;;;;;;;;;;;;;;;;;2131945;27;19973;-44
2022/09/01 00:29:44;;;;;;;;;;;;;;;;;;2132025;27;20371;-43
2022/09/01 00:30:45;;;;;;;;;;;;;;;;;;2131888;27;19961;-44
2022/09/01 00:31:46;;;;;;;;;;;;;;;;;;2131854;27;19923;-45
2022/09/01 00:32:47;;;;;;;;;;;;;;;;;;2131865;27;19972;-47
2022/09/01 00:33:48;;;;;;;;;;;;;;;;;;2132017;27;20360;-44
2022/09/01 00:34:49;;;;;;;;;;;;;;;;;;2131890;27;20002;-43
2022/09/01 00:35:50;;;;;;;;;;;;;;;;;;2132072;27;20333;-43
2022/09/01 00:36:51;;;;;;;;;;;;;;;;;;2131738;27;19967;-44
2022/09/01 00:37:51;;;;;;;;;;;;;;;;;;2131818;27;19923;-43
2022/09/01 00:38:52;;;;;;;;;;;;;;;;;;2132014;27;19927;-42
2022/09/01 00:39:53;;;;;;;;;;;;;;;;;;2131857;27;20371;-43
2022/09/01 00:40:54;;;;;;;;;;;;;;;;;;2131988;27;19930;-44
2022/09/01 00:41:55;;;;;;;;;;;;;;;;;;2131685;27;20368;-43
2022/09/01 00:42:56;;;;;;;;;;;;;;;;;;2131749;27;19930;-43
2022/09/01 00:43:57;;;;;;;;;;;;;;;;;;2131865;27;19931;-43
2022/09/01 00:44:58;;;;;;;;;;;;;;;;;;2131815;27;20021;-42
2022/09/01 00:45:59;;;;;;;;;;;;;;;;;;2131701;27;19975;-44
2022/09/01 00:47:00;;;;;;;;;;;;;;;;;;2131591;27;19923;-43
2022/09/01 00:48:04;;;;;;;;;;;;;;;;;;2131798;27;20012;-43
2022/09/01 00:49:05;;;;;;;;;;;;;;;;;;2131804;27;20013;-43
2022/09/01 00:50:06;;;;;;;;;;;;;;;;;;2131777;27;20351;-43
2022/09/01 00:51:07;;;;;;;;;;;;;;;;;;2131695;27;19936;-44
2022/09/01 00:52:08;;;;;;;;;;;;;;;;;;2131923;27;20018;-43
2022/09/01 00:53:09;;;;;;;;;;;;;;;;;;2131775;27;19923;-43
2022/09/01 00:54:09;;;;;;;;;;;;;;;;;;2131922;27;20007;-43
2022/09/01 00:55:10;;;;;;;;;;;;;;;;;;2131659;27;20347;-44
2022/09/01 00:56:11;;;;;;;;;;;;;;;;;;2131809;27;19930;-44
2022/09/01 00:57:12;;;;;;;;;;;;;;;;;;2131750;27;19927;-43
2022/09/01 00:58:13;;;;;;;;;;;;;;;;;;2131730;27;19955;-43
2022/09/01 00:59:20;;;;;;;;;;;;;;;;;;2131841;27;19949;-42
2022/09/01 01:00:21;;;;;;;;;;;;;;;;;;2131775;27;20447;-44
2022/09/01 01:01:22;;;;;;;;;;;;;;;;;;2131720;27;19979;-43
2022/09/01 01:02:23;;;;;;;;;;;;;;;;;;2131774;27;19930;-43
2022/09/01 01:03:24;;;;;;;;;;;;;;;;;;2131912;27;20299;-43
2022/09/01 01:04:25;;;;;;;;;;;;;;;;;;2131705;27;20308;-43
2022/09/01 01:05:26;;;;;;;;;;;;;;;;;;2131785;27;19923;-43
2022/09/01 01:06:29;;;;;;;;;;;;;;;;;;2131593;27;20014;-43
2022/09/01 01:07:34;;;;;;;;;;;;;;;;;;2131664;27;19986;-43
2022/09/01 01:08:34;;;;;;;;;;;;;;;;;;2131698;27;19929;-44
2022/09/01 01:09:35;;;;;;;;;;;;;;;;;;2131714;27;19957;-43
2022/09/01 01:10:36;;;;;;;;;;;;;;;;;;2131762;27;19953;-43
2022/09/01 01:11:37;;;;;;;;;;;;;;;;;;2126107;27;20426;-43
2022/09/01 01:12:39;;;;;;;;;;;;;;;;;;2123038;28;20501;-43
2022/09/01 01:13:40;;;;;;;;;;;;;;;;;;2123008;28;20006;-43
2022/09/01 01:14:40;;;;;;;;;;;;;;;;;;2123157;28;19923;-43
2022/09/01 01:15:42;;;;;;;;;;;;;;;;;;2123060;28;19991;-43
2022/09/01 01:16:43;;;;;;;;;;;;;;;;;;2123017;27;19923;-43
2022/09/01 01:17:44;;;;;;;;;;;;;;;;;;2123105;28;20052;-43
2022/09/01 01:18:45;;;;;;;;;;;;;;;;;;2123174;28;19931;-43
2022/09/01 01:23:40;;;;;;;;;;;;;;;;;;2123014;28;20475;-44
2022/09/01 01:24:41;;;;;;;;;;;;;;;;;;2123004;28;19924;-43
2022/09/01 01:25:43;;;;;;;;;;;;;;;;;;2122981;27;20527;-44
2022/09/01 01:26:44;;;;;;;;;;;;;;;;;;2123793;27;20021;-44
2022/09/01 01:27:45;;;;;;;;;;;;;;;;;;2124528;28;19959;-43
2022/09/01 01:28:47;;;;;;;;;;;;;;;;;;2124443;28;20366;-43
2022/09/01 01:29:49;;;;;;;;;;;;;;;;;;2124625;28;19924;-43
2022/09/01 01:30:51;;;;;;;;;;;;;;;;;;2124728;28;20010;-43
2022/09/01 01:31:52;;;;;;;;;;;;;;;;;;2124431;27;19924;-43
2022/09/01 01:32:56;;;;;;;;;;;;;;;;;;2124601;28;20014;-43
2022/09/01 01:33:58;;;;;;;;;;;;;;;;;;2124475;28;20018;-42
2022/09/01 01:35:01;;;;;;;;;;;;;;;;;;2124532;28;20026;-43
2022/09/01 01:36:02;;;;;;;;;;;;;;;;;;2124426;28;20011;-43
2022/09/01 01:37:03;;;;;;;;;;;;;;;;;;2124516;27;20010;-43
2022/09/01 01:38:06;;;;;;;;;;;;;;;;;;2124451;28;20018;-43
2022/09/01 01:39:07;;;;;;;;;;;;;;;;;;2124595;28;19929;-42
2022/09/01 01:40:14;;;;;;;;;;;;;;;;;;2124341;28;19930;-43
2022/09/01 01:41:16;;;;;;;;;;;;;;;;;;2124502;27;19923;-43
2022/09/01 01:42:17;;;;;;;;;;;;;;;;;;2124460;28;20067;-43
2022/09/01 01:43:20;;;;;;;;;;;;;;;;;;2131900;27;20006;-43
2022/09/01 01:44:21;;;;;;;;;;;;;;;;;;2132973;27;20362;-43
2022/09/01 01:45:22;;;;;;;;;;;;;;;;;;2132936;27;19923;-43
2022/09/01 01:46:24;;;;;;;;;;;;;;;;;;2132984;27;20348;-43
2022/09/01 01:47:25;;;;;;;;;;;;;;;;;;2133076;27;19931;-43
2022/09/01 01:48:27;;;;;;;;;;;;;;;;;;2132944;27;20034;-43
2022/09/01 01:49:30;;;;;;;;;;;;;;;;;;2132849;27;20025;-43
2022/09/01 01:50:34;;;;;;;;;;;;;;;;;;2132959;27;20399;-43
2022/09/01 01:51:35;;;;;;;;;;;;;;;;;;2132845;27;20406;-43
2022/09/01 01:52:36;;;;;;;;;;;;;;;;;;2132863;27;20041;-43
2022/09/01 01:53:37;;;;;;;;;;;;;;;;;;2132939;27;19929;-43
2022/09/01 01:54:38;;;;;;;;;;;;;;;;;;2132976;27;19923;-43
2022/09/01 01:55:40;;;;;;;;;;;;;;;;;;2133024;27;19923;-43
2022/09/01 01:56:41;;;;;;;;;;;;;;;;;;2132983;27;20006;-43
2022/09/01 01:57:47;;;;;;;;;;;;;;;;;;2132994;27;20013;-43
2022/09/01 01:58:48;;;;;;;;;;;;;;;;;;2133204;27;19923;-44
2022/09/01 01:59:49;;;;;;;;;;;;;;;;;;2132866;27;19923;-43
2022/09/01 02:00:50;;;;;;;;;;;;;;;;;;2132891;27;19923;-43
2022/09/01 02:01:51;;;;;;;;;;;;;;;;;;2132845;27;19931;-43
2022/09/01 02:02:52;;;;;;;;;;;;;;;;;;2132849;27;20390;-42
2022/09/01 02:03:53;;;;;;;;;;;;;;;;;;2132847;27;20387;-43
2022/09/01 02:04:54;;;;;;;;;;;;;;;;;;2132829;27;19923;-43
2022/09/01 02:05:55;;;;;;;;;;;;;;;;;;2133116;27;19923;-45
2022/09/01 02:06:56;;;;;;;;;;;;;;;;;;2132724;27;20018;-44
2022/09/01 02:07:58;;;;;;;;;;;;;;;;;;2133195;27;19973;-44
2022/09/01 02:09:02;;;;;;;;;;;;;;;;;;2132821;27;20374;-44
2022/09/01 02:10:03;;;;;;;;;;;;;;;;;;2132845;27;20017;-45
2022/09/01 02:11:04;;;;;;;;;;;;;;;;;;2132783;27;19997;-43
2022/09/01 02:12:06;;;;;;;;;;;;;;;;;;2132913;27;20018;-45
2022/09/01 02:13:07;;;;;;;;;;;;;;;;;;2132959;27;19923;-45
2022/09/01 02:14:08;;;;;;;;;;;;;;;;;;2132797;27;20364;-44
2022/09/01 02:15:11;;;;;;;;;;;;;;;;;;2133018;27;20014;-45
2022/09/01 02:16:12;;;;;;;;;;;;;;;;;;2132775;27;20067;-47
2022/09/01 02:17:13;;;;;;;;;;;;;;;;;;2132742;27;20368;-45
2022/09/01 02:18:15;;;;;;;;;;;;;;;;;;2132864;27;19954;-44
2022/09/01 02:19:19;;;;;;;;;;;;;;;;;;2132876;27;19968;-45
2022/09/01 02:20:23;;;;;;;;;;;;;;;;;;2132606;27;20017;-46
2022/09/01 02:21:24;;;;;;;;;;;;;;;;;;2132671;27;19959;-44
2022/09/01 02:22:25;;;;;;;;;;;;;;;;;;2132721;27;20405;-45
2022/09/01 02:23:26;;;;;;;;;;;;;;;;;;2132791;27;19931;-45
2022/09/01 02:24:30;;;;;;;;;;;;;;;;;;2132701;27;19959;-45
2022/09/01 02:25:31;;;;;;;;;;;;;;;;;;2132712;27;19923;-44
2022/09/01 02:26:32;;;;;;;;;;;;;;;;;;2132587;27;20405;-45
2022/09/01 02:27:38;;;;;;;;;;;;;;;;;;2132668;27;20013;-45
2022/09/01 02:28:41;;;;;;;;;;;;;;;;;;2132931;27;20005;-45
2022/09/01 02:29:42;;;;;;;;;;;;;;;;;;2132723;27;20006;-45
2022/09/01 02:30:44;;;;;;;;;;;;;;;;;;2132789;27;19923;-45
2022/09/01 02:31:45;;;;;;;;;;;;;;;;;;2132804;27;19946;-43
2022/09/01 02:32:46;;;;;;;;;;;;;;;;;;2133204;27;20423;-45
2022/09/01 02:34:09;;;;;;;;;;;;;;;;;;2132732;27;19923;-44
2022/09/01 02:35:10;;;;;;;;;;;;;;;;;;2132714;27;19962;-45
2022/09/01 02:36:12;;;;;;;;;;;;;;;;;;2132653;27;20002;-44
2022/09/01 02:37:14;;;;;;;;;;;;;;;;;;2132369;27;20366;-44
2022/09/01 02:38:16;;;;;;;;;;;;;;;;;;2132761;27;20013;-44
2022/09/01 02:39:17;;;;;;;;;;;;;;;;;;2132383;27;20376;-44
2022/09/01 02:40:18;;;;;;;;;;;;;;;;;;2132703;27;19923;-45
2022/09/01 02:41:21;;;;;;;;;;;;;;;;;;2132525;27;19923;-44
2022/09/01 02:42:25;;;;;;;;;;;;;;;;;;2132627;27;19935;-44
2022/09/01 02:43:27;;;;;;;;;;;;;;;;;;2132710;27;19923;-44
2022/09/01 02:44:28;;;;;;;;;;;;;;;;;;2132501;27;20002;-45
2022/09/01 02:45:29;;;;;;;;;;;;;;;;;;2132578;27;19952;-46
2022/09/01 02:46:29;;;;;;;;;;;;;;;;;;2132658;27;19934;-46
2022/09/01 02:47:31;;;;;;;;;;;;;;;;;;2132646;27;19970;-44
2022/09/01 02:48:32;;;;;;;;;;;;;;;;;;2132922;27;20045;-44
2022/09/01 02:49:34;;;;;;;;;;;;;;;;;;2132560;27;20361;-46
2022/09/01 02:50:35;;;;;;;;;;;;;;;;;;2132543;27;19922;-45
2022/09/01 02:51:37;;;;;;;;;;;;;;;;;;2132594;27;20367;-44
2022/09/01 02:52:39;;;;;;;;;;;;;;;;;;2132609;27;20014;-45
2022/09/01 02:53:41;;;;;;;;;;;;;;;;;;2132544;27;20013;-44
2022/09/01 02:54:44;;;;;;;;;;;;;;;;;;2132492;27;20352;-44
2022/09/01 02:55:45;;;;;;;;;;;;;;;;;;2132461;27;20080;-44
2022/09/01 02:56:47;;;;;;;;;;;;;;;;;;2132394;27;19923;-44
2022/09/01 02:57:48;;;;;;;;;;;;;;;;;;2132636;27;20010;-45
2022/09/01 02:58:48;;;;;;;;;;;;;;;;;;2132661;27;19923;-45
2022/09/01 02:59:49;;;;;;;;;;;;;;;;;;2132456;27;19923;-45
2022/09/01 03:00:51;;;;;;;;;;;;;;;;;;2132610;27;20017;-44
2022/09/01 03:01:52;;;;;;;;;;;;;;;;;;2132444;27;19930;-44
2022/09/01 03:02:53;;;;;;;;;;;;;;;;;;2132424;27;20267;-44
2022/09/01 03:03:54;;;;;;;;;;;;;;;;;;2132431;27;20367;-45
2022/09/01 03:04:56;;;;;;;;;;;;;;;;;;2132651;27;19985;-43
2022/09/01 03:05:57;;;;;;;;;;;;;;;;;;2132444;27;19923;-43
2022/09/01 03:06:58;;;;;;;;;;;;;;;;;;2132386;27;20305;-43
2022/09/01 03:07:59;;;;;;;;;;;;;;;;;;2132426;27;19923;-43
2022/09/01 03:09:00;;;;;;;;;;;;;;;;;;2132624;27;20001;-43
2022/09/01 03:10:02;;;;;;;;;;;;;;;;;;2132550;27;19935;-43
2022/09/01 03:11:03;;;;;;;;;;;;;;;;;;2132117;27;20018;-43
2022/09/01 03:12:05;;;;;;;;;;;;;;;;;;2123744;27;20452;-43
2022/09/01 03:13:07;;;;;;;;;;;;;;;;;;2123849;28;19923;-43
2022/09/01 03:14:08;;;;;;;;;;;;;;;;;;2123864;28;20384;-43
2022/09/01 03:15:08;;;;;;;;;;;;;;;;;;2123993;28;19923;-45
2022/09/01 03:16:14;;;;;;;;;;;;;;;;;;2123839;27;19927;-46
2022/09/01 03:17:15;;;;;;;;;;;;;;;;;;2123838;28;19927;-44
2022/09/01 03:18:17;;;;;;;;;;;;;;;;;;2123879;28;19923;-44
2022/09/01 03:19:18;;;;;;;;;;;;;;;;;;2123818;28;19923;-44
2022/09/01 03:20:20;;;;;;;;;;;;;;;;;;2123758;28;20384;-44
2022/09/01 03:21:22;;;;;;;;;;;;;;;;;;2123723;27;20018;-45
2022/09/01 03:22:23;;;;;;;;;;;;;;;;;;2123956;28;20030;-45
2022/09/01 03:23:24;;;;;;;;;;;;;;;;;;2123844;28;20016;-45
2022/09/01 03:24:25;;;;;;;;;;;;;;;;;;2123835;28;20354;-44
2022/09/01 03:25:28;;;;;;;;;;;;;;;;;;2124091;28;19923;-45
2022/09/01 03:26:29;;;;;;;;;;;;;;;;;;2123638;27;20034;-45
2022/09/01 03:27:30;;;;;;;;;;;;;;;;;;2123706;28;20415;-44
2022/09/01 03:28:31;;;;;;;;;;;;;;;;;;2126657;27;19929;-46
2022/09/01 03:29:32;;;;;;;;;;;;;;;;;;2132381;27;19923;-44
2022/09/01 03:30:33;;;;;;;;;;;;;;;;;;2132279;27;20447;-45
2022/09/01 03:31:34;;;;;;;;;;;;;;;;;;2132368;27;19923;-46
2022/09/01 03:32:35;;;;;;;;;;;;;;;;;;2132354;27;20350;-45
2022/09/01 03:33:35;;;;;;;;;;;;;;;;;;2126486;27;20349;-44
2022/09/01 03:34:38;;;;;;;;;;;;;;;;;;2123704;28;19931;-46
2022/09/01 03:35:39;;;;;;;;;;;;;;;;;;2129903;27;20068;-45
2022/09/01 03:36:48;;;;;;;;;;;;;;;;;;2132171;27;20295;-44
2022/09/01 03:37:49;;;;;;;;;;;;;;;;;;2132327;27;20500;-44
2022/09/01 03:38:50;;;;;;;;;;;;;;;;;;2132393;27;19927;-44
2022/09/01 03:39:51;;;;;;;;;;;;;;;;;;2132121;27;20380;-44
2022/09/01 03:40:53;;;;;;;;;;;;;;;;;;2132267;27;19926;-46
2022/09/01 03:41:55;;;;;;;;;;;;;;;;;;2132073;27;20390;-44
2022/09/01 03:42:56;;;;;;;;;;;;;;;;;;2132157;27;20383;-44
2022/09/01 03:43:57;;;;;;;;;;;;;;;;;;2132270;27;20014;-44
2022/09/01 03:44:58;;;;;;;;;;;;;;;;;;2132225;27;19923;-44
2022/09/01 03:45:59;;;;;;;;;;;;;;;;;;2132101;27;20011;-45
2022/09/01 03:47:00;;;;;;;;;;;;;;;;;;2132110;27;20022;-44
2022/09/01 03:48:05;;;;;;;;;;;;;;;;;;2132178;27;19923;-44
2022/09/01 03:49:06;;;;;;;;;;;;;;;;;;2131472;27;20291;-44
2022/09/01 03:50:10;;;;;;;;;;;;;;;;;;2132280;27;19923;-45
2022/09/01 03:51:13;;;;;;;;;;;;;;;;;;2132265;27;20343;-45
2022/09/01 03:52:16;;;;;;;;;;;;;;;;;;2132084;27;20449;-45
2022/09/01 03:53:17;;;;;;;;;;;;;;;;;;2132200;27;19923;-45
2022/09/01 03:54:18;;;;;;;;;;;;;;;;;;2132550;27;19927;-44
2022/09/01 03:55:22;;;;;;;;;;;;;;;;;;2132178;27;19945;-44
2022/09/01 03:56:24;;;;;;;;;;;;;;;;;;2132284;27;20017;-43
2022/09/01 03:57:28;;;;;;;;;;;;;;;;;;2132140;27;20010;-43
2022/09/01 03:58:29;;;;;;;;;;;;;;;;;;2132201;27;20001;-43
2022/09/01 03:59:30;;;;;;;;;;;;;;;;;;2132168;27;20009;-43
2022/09/01 04:00:31;;;;;;;;;;;;;;;;;;2132056;27;19923;-43
2022/09/01 04:01:40;;;;;;;;;;;;;;;;;;2132106;27;19952;-43
2022/09/01 04:02:41;;;;;;;;;;;;;;;;;;2132139;27;19923;-43
2022/09/01 04:03:47;;;;;;;;;;;;;;;;;;2132165;27;19930;-43
2022/09/01 04:04:48;;;;;;;;;;;;;;;;;;2132132;27;20375;-43
2022/09/01 04:05:49;;;;;;;;;;;;;;;;;;2132116;27;20014;-43
2022/09/01 04:06:50;;;;;;;;;;;;;;;;;;2131983;27;20006;-43
2022/09/01 04:07:51;;;;;;;;;;;;;;;;;;2132269;27;19965;-44
2022/09/01 04:08:56;;;;;;;;;;;;;;;;;;2132033;27;19974;-43
2022/09/01 04:09:57;;;;;;;;;;;;;;;;;;2132064;27;20370;-44
2022/09/01 04:10:59;;;;;;;;;;;;;;;;;;2132059;27;19959;-44
2022/09/01 04:11:59;;;;;;;;;;;;;;;;;;2131809;27;20627;-43
2022/09/01 04:13:01;;;;;;;;;;;;;;;;;;2132018;27;19983;-43
2022/09/01 04:14:02;;;;;;;;;;;;;;;;;;2132011;27;20022;-43
2022/09/01 04:15:03;;;;;;;;;;;;;;;;;;2131991;27;19934;-43
2022/09/01 04:16:09;;;;;;;;;;;;;;;;;;2132213;27;19927;-44
2022/09/01 04:18:31;;;;;;;;;;;;;;;;;;2132167;27;20324;-44
2022/09/01 04:19:31;;;;;;;;;;;;;;;;;;2131906;27;20395;-47
2022/09/01 04:20:38;;;;;;;;;;;;;;;;;;2131883;27;19939;-45
2022/09/01 04:21:39;;;;;;;;;;;;;;;;;;2132048;27;19923;-46
2022/09/01 04:22:40;;;;;;;;;;;;;;;;;;2131868;27;20014;-46
2022/09/01 04:23:41;;;;;;;;;;;;;;;;;;2132137;27;20391;-44
2022/09/01 04:24:44;;;;;;;;;;;;;;;;;;2132101;27;20023;-44
2022/09/01 04:25:45;;;;;;;;;;;;;;;;;;2131834;27;20379;-45
2022/09/01 04:26:48;;;;;;;;;;;;;;;;;;2131986;27;19960;-46
2022/09/01 04:27:49;;;;;;;;;;;;;;;;;;2131839;27;20328;-44
2022/09/01 04:28:50;;;;;;;;;;;;;;;;;;2131755;27;19971;-44
2022/09/01 04:29:51;;;;;;;;;;;;;;;;;;2131963;27;20386;-45
2022/09/01 04:30:57;;;;;;;;;;;;;;;;;;2131863;27;19972;-45
2022/09/01 04:32:00;;;;;;;;;;;;;;;;;;2131698;27;20015;-45
2022/09/01 04:33:01;;;;;;;;;;;;;;;;;;2131882;27;19975;-46
2022/09/01 04:34:02;;;;;;;;;;;;;;;;;;2132188;27;19923;-43
2022/09/01 04:35:03;;;;;;;;;;;;;;;;;;2131954;27;20015;-43
2022/09/01 04:36:04;;;;;;;;;;;;;;;;;;2131887;27;19923;-44
2022/09/01 04:37:05;;;;;;;;;;;;;;;;;;2131893;27;20014;-43
2022/09/01 04:38:07;;;;;;;;;;;;;;;;;;2131898;27;20002;-43
2022/09/01 04:39:08;;;;;;;;;;;;;;;;;;2131965;27;19930;-44
2022/09/01 04:40:09;;;;;;;;;;;;;;;;;;2131775;27;19923;-44
2022/09/01 04:41:16;;;;;;;;;;;;;;;;;;2131469;27;19924;-43
2022/09/01 04:42:17;;;;;;;;;;;;;;;;;;2132043;27;20467;-43
2022/09/01 04:43:18;;;;;;;;;;;;;;;;;;2131852;27;20324;-43
2022/09/01 04:44:19;;;;;;;;;;;;;;;;;;2131799;27;19929;-45
2022/09/01 04:45:26;;;;;;;;;;;;;;;;;;2131837;27;20031;-43
2022/09/01 04:46:30;;;;;;;;;;;;;;;;;;2131764;27;19972;-43
2022/09/01 04:47:30;;;;;;;;;;;;;;;;;;2132116;27;19979;-43
2022/09/01 04:48:36;;;;;;;;;;;;;;;;;;2131789;27;20353;-43
2022/09/01 04:49:37;;;;;;;;;;;;;;;;;;2131650;27;19987;-43
2022/09/01 04:50:39;;;;;;;;;;;;;;;;;;2132018;27;19932;-43
2022/09/01 04:51:40;;;;;;;;;;;;;;;;;;2131637;27;19923;-43
2022/09/01 04:52:41;;;;;;;;;;;;;;;;;;2131694;27;20452;-44
2022/09/01 04:53:47;;;;;;;;;;;;;;;;;;2131712;27;20415;-44
2022/09/01 04:54:48;;;;;;;;;;;;;;;;;;2131915;27;19929;-44
2022/09/01 04:55:51;;;;;;;;;;;;;;;;;;2131662;27;20446;-44
2022/09/01 04:56:53;;;;;;;;;;;;;;;;;;2132043;27;20006;-46
2022/09/01 04:57:55;;;;;;;;;;;;;;;;;;2131674;27;20009;-46
2022/09/01 04:58:56;;;;;;;;;;;;;;;;;;2131903;27;20467;-44
2022/09/01 04:59:57;;;;;;;;;;;;;;;;;;2131890;27;19930;-44
2022/09/01 05:00:59;;;;;;;;;;;;;;;;;;2130771;27;20287;-43
2022/09/01 05:02:00;;;;;;;;;;;;;;;;;;2131363;27;19923;-44
2022/09/01 05:03:03;;;;;;;;;;;;;;;;;;2131857;27;19994;-47
2022/09/01 05:04:04;;;;;;;;;;;;;;;;;;2132016;27;19927;-43
2022/09/01 05:05:09;;;;;;;;;;;;;;;;;;2131637;27;20034;-44
2022/09/01 05:06:10;;;;;;;;;;;;;;;;;;2131903;27;20005;-43
2022/09/01 05:07:13;;;;;;;;;;;;;;;;;;2131712;27;20018;-44
2022/09/01 05:08:13;;;;;;;;;;;;;;;;;;2131693;27;20371;-43
2022/09/01 05:09:16;;;;;;;;;;;;;;;;;;2131677;27;19927;-44
2022/09/01 05:10:17;;;;;;;;;;;;;;;;;;2131642;27;20010;-43
2022/09/01 05:11:18;;;;;;;;;;;;;;;;;;2131377;27;20364;-44
2022/09/01 05:12:20;;;;;;;;;;;;;;;;;;2131883;27;20380;-43
2022/09/01 05:13:22;;;;;;;;;;;;;;;;;;2131960;27;19927;-45
2022/09/01 05:14:23;;;;;;;;;;;;;;;;;;2131529;27;20039;-45
2022/09/01 05:15:24;;;;;;;;;;;;;;;;;;2131696;27;19952;-45
2022/09/01 05:16:26;;;;;;;;;;;;;;;;;;2131540;27;20013;-45
2022/09/01 05:17:27;;;;;;;;;;;;;;;;;;2131655;27;19952;-45
2022/09/01 05:18:28;;;;;;;;;;;;;;;;;;2131633;27;19971;-46
2022/09/01 05:19:29;;;;;;;;;;;;;;;;;;2131629;27;20440;-46
2022/09/01 05:20:30;;;;;;;;;;;;;;;;;;2131511;27;20018;-44
2022/09/01 05:21:32;;;;;;;;;;;;;;;;;;2131646;27;19968;-45
2022/09/01 05:22:32;;;;;;;;;;;;;;;;;;2131663;27;20061;-45
2022/09/01 05:23:35;;;;;;;;;;;;;;;;;;2131554;27;19935;-46
2022/09/01 05:24:36;;;;;;;;;;;;;;;;;;2131745;27;20079;-45
2022/09/01 05:25:42;;;;;;;;;;;;;;;;;;2131975;27;19923;-45
2022/09/01 05:26:45;;;;;;;;;;;;;;;;;;2131362;27;20366;-45
2022/09/01 05:27:48;;;;;;;;;;;;;;;;;;2131337;27;20353;-44
2022/09/01 05:28:49;;;;;;;;;;;;;;;;;;2131710;27;20070;-45
2022/09/01 05:29:50;;;;;;;;;;;;;;;;;;2131529;27;20341;-45
2022/09/01 05:30:53;;;;;;;;;;;;;;;;;;2131553;27;19923;-45
2022/09/01 05:31:54;;;;;;;;;;;;;;;;;;2131550;27;20013;-45
2022/09/01 05:32:54;;;;;;;;;;;;;;;;;;2131799;27;19923;-44
2022/09/01 05:33:56;;;;;;;;;;;;;;;;;;2131592;27;20415;-44
2022/09/01 05:34:58;;;;;;;;;;;;;;;;;;2131546;27;20451;-44
2022/09/01 05:36:00;;;;;;;;;;;;;;;;;;2131571;27;19971;-44
2022/09/01 05:37:00;;;;;;;;;;;;;;;;;;2131748;27;19973;-44
2022/09/01 05:38:02;;;;;;;;;;;;;;;;;;2131900;27;19930;-43
2022/09/01 05:39:03;;;;;;;;;;;;;;;;;;2131488;27;20022;-44
2022/09/01 05:40:04;;;;;;;;;;;;;;;;;;2131626;27;19930;-44
2022/09/01 05:41:07;;;;;;;;;;;;;;;;;;2131470;27;19923;-43
2022/09/01 05:42:08;;;;;;;;;;;;;;;;;;2131542;27;20018;-44
2022/09/01 05:43:11;;;;;;;;;;;;;;;;;;2131445;27;20451;-43
2022/09/01 05:44:14;;;;;;;;;;;;;;;;;;2131700;27;20367;-45
2022/09/01 05:45:22;;;;;;;;;;;;;;;;;;2131565;27;20021;-45
2022/09/01 05:46:23;;;;;;;;;;;;;;;;;;2131456;27;20442;-46
2022/09/01 05:47:24;;;;;;;;;;;;;;;;;;2131376;27;20299;-47
2022/09/01 05:48:27;;;;;;;;;;;;;;;;;;2131592;27;19933;-45
2022/09/01 05:49:31;;;;;;;;;;;;;;;;;;2131640;27;20399;-43
2022/09/01 05:50:32;;;;;;;;;;;;;;;;;;2131388;27;20398;-43
2022/09/01 05:51:35;;;;;;;;;;;;;;;;;;2131522;27;19923;-45
2022/09/01 05:52:46;;;;;;;;;;;;;;;;;;2131596;27;19923;-43
2022/09/01 05:53:50;;;;;;;;;;;;;;;;;;2131415;27;20013;-44
2022/09/01 05:54:51;;;;;;;;;;;;;;;;;;2131426;27;20290;-44
2022/09/01 05:55:56;;;;;;;;;;;;;;;;;;2131588;27;19923;-44
2022/09/01 05:56:57;;;;;;;;;;;;;;;;;;2131566;27;20015;-45
2022/09/01 05:58:12;;;;;;;;;;;;;;;;;;2131438;27;19997;-45
2022/09/01 05:59:13;;;;;;;;;;;;;;;;;;2131509;27;19923;-44
2022/09/01 06:00:33;;;;;;;;;;;;;;;;;;2131335;27;19923;-44
2022/09/01 06:01:38;;;;;;;;;;;;;;;;;;2131233;27;20017;-43
2022/09/01 06:02:39;;;;;;;;;;;;;;;;;;2131498;27;20011;-43
2022/09/01 06:03:40;;;;;;;;;;;;;;;;;;2131507;27;19965;-44
2022/09/01 06:04:42;;;;;;;;;;;;;;;;;;2131392;27;20489;-44
2022/09/01 06:05:47;;;;;;;;;;;;;;;;;;2131326;27;19923;-43
2022/09/01 06:06:48;;;;;;;;;;;;;;;;;;2131454;27;20005;-44
2022/09/01 06:08:09;;;;;;;;;;;;;;;;;;2131382;27;19968;-44
2022/09/01 06:09:10;;;;;;;;;;;;;;;;;;2131341;27;19923;-44
2022/09/01 06:10:14;;;;;;;;;;;;;;;;;;2131379;27;19923;-44
2022/09/01 06:11:16;;;;;;;;;;;;;;;;;;2129023;27;20431;-43
2022/09/01 06:12:19;;;;;;;;;;;;;;;;;;2122984;27;20080;-44
2022/09/01 06:13:20;;;;;;;;;;;;;;;;;;2124239;28;20359;-45
2022/09/01 06:14:21;;;;;;;;;;;;;;;;;;2124343;28;19927;-44
2022/09/01 06:15:23;;;;;;;;;;;;;;;;;;2124307;28;19923;-44
2022/09/01 06:16:24;;;;;;;;;;;;;;;;;;2124453;27;20360;-45
2022/09/01 06:17:25;;;;;;;;;;;;;;;;;;2124433;28;19923;-45
2022/09/01 06:18:26;;;;;;;;;;;;;;;;;;2124274;28;19923;-45
2022/09/01 06:19:27;;;;;;;;;;;;;;;;;;2124248;28;20400;-45
2022/09/01 06:20:28;;;;;;;;;;;;;;;;;;2124168;28;20376;-45
2022/09/01 06:21:30;;;;;;;;;;;;;;;;;;2124140;27;20014;-47
2022/09/01 06:22:31;;;;;;;;;;;;;;;;;;2124307;27;20010;-45
2022/09/01 06:23:32;;;;;;;;;;;;;;;;;;2124248;28;19923;-45
2022/09/01 06:24:33;;;;;;;;;;;;;;;;;;2131809;27;20031;-46
2022/09/01 06:25:34;;;;;;;;;;;;;;;;;;2133008;27;20014;-44
2022/09/01 06:26:35;;;;;;;;;;;;;;;;;;2132788;27;19967;-44
2022/09/01 06:27:43;;;;;;;;;;;;;;;;;;2132775;27;19923;-44
2022/09/01 06:28:43;;;;;;;;;;;;;;;;;;2132773;27;20025;-44
2022/09/01 06:29:46;;;;;;;;;;;;;;;;;;2132668;27;19927;-45
2022/09/01 06:30:47;;;;;;;;;;;;;;;;;;2132552;27;20022;-43
2022/09/01 06:31:51;;;;;;;;;;;;;;;;;;2133163;27;20009;-44
2022/09/01 06:32:52;;;;;;;;;;;;;;;;;;2132693;27;19999;-43
2022/09/01 06:33:53;;;;;;;;;;;;;;;;;;2132634;27;19947;-44
2022/09/01 06:34:56;;;;;;;;;;;;;;;;;;2132668;27;20435;-44
2022/09/01 06:35:59;;;;;;;;;;;;;;;;;;2133038;27;20017;-44
2022/09/01 06:36:59;;;;;;;;;;;;;;;;;;2132651;27;19971;-45
2022/09/01 06:38:01;;;;;;;;;;;;;;;;;;2133133;27;20361;-45
2022/09/01 06:39:02;;;;;;;;;;;;;;;;;;2132590;27;19930;-45
2022/09/01 06:40:03;;;;;;;;;;;;;;;;;;2132701;27;19975;-45
2022/09/01 06:41:04;;;;;;;;;;;;;;;;;;2132898;27;19923;-45
2022/09/01 06:42:05;;;;;;;;;;;;;;;;;;2132705;27;20083;-43
2022/09/01 06:43:06;;;;;;;;;;;;;;;;;;2132615;27;20295;-43
2022/09/01 06:44:09;;;;;;;;;;;;;;;;;;2132616;27;19923;-44
2022/09/01 06:45:14;;;;;;;;;;;;;;;;;;2132643;27;19923;-43
2022/09/01 06:46:16;;;;;;;;;;;;;;;;;;2132793;27;19974;-45
2022/09/01 06:47:18;;;;;;;;;;;;;;;;;;2132547;27;19931;-46
2022/09/01 06:48:21;;;;;;;;;;;;;;;;;;2132996;27;19967;-43
2022/09/01 06:49:31;;;;;;;;;;;;;;;;;;2132681;27;19966;-42
2022/09/01 06:50:32;;;;;;;;;;;;;;;;;;2132588;27;20277;-44
2022/09/01 06:51:53;;;;;;;;;;;;;;;;;;2132374;27;20288;-44
2022/09/01 06:53:09;;;;;;;;;;;;;;;;;;2132562;27;19924;-44
2022/09/01 06:54:34;;;;;;;;;;;;;;;;;;2132541;27;19930;-43
2022/09/01 06:55:36;;;;;;;;;;;;;;;;;;2132545;27;19983;-43
2022/09/01 06:56:37;;;;;;;;;;;;;;;;;;2133181;27;20010;-43
2022/09/01 06:57:47;;;;;;;;;;;;;;;;;;2132593;27;20412;-43
2022/09/01 06:59:06;;;;;;;;;;;;;;;;;;2132888;27;19923;-45
2022/09/01 07:00:16;;;;;;;;;;;;;;;;;;2132450;27;20467;-45
2022/09/01 07:01:18;;;;;;;;;;;;;;;;;;2132345;27;20013;-45
2022/09/01 07:02:19;;;;;;;;;;;;;;;;;;2132413;27;19927;-45
2022/09/01 07:03:21;;;;;;;;;;;;;;;;;;2132521;27;19923;-46
2022/09/01 07:04:22;;;;;;;;;;;;;;;;;;2132361;27;20041;-46
2022/09/01 07:05:23;;;;;;;;;;;;;;;;;;2133281;27;20034;-45
2022/09/01 07:06:44;;;;;;;;;;;;;;;;;;2132425;27;19927;-43
2022/09/01 07:08:08;;;;;;;;;;;;;;;;;;2132515;27;19923;-42
2022/09/01 07:09:08;;;;;;;;;;;;;;;;;;2133019;27;19923;-43
2022/09/01 07:10:30;;;;;;;;;;;;;;;;;;2132615;27;19923;-43